sensor_id;sensor_type;location;lat;lon;timestamp;P1;durP1;ratioP1;P2;durP2;ratioP2
7965;SDS011;4028;43.272;26.932;2023-01-04T00:00:59;12.30;;;10.83;;
7965;SDS011;4028;43.272;26.932;2023-01-04T00:03:26;12.27;;;9.90;;
7965;SDS011;4028;43.272;26.932;2023-01-04T00:05:51;10.93;;;9.83;;
7965;SDS011;4028;43.272;26.932;2023-01-04T00:08:17;12.10;;;9.60;;
7965;SDS011;4028;43.272;26.932;2023-01-04T00:10:43;12.80;;;9.97;;
7965;SDS011;4028;43.272;26.932;2023-01-04T00:13:08;12.47;;;10.20;;
7965;SDS011;4028;43.272;26.932;2023-01-04T00:15:34;14.90;;;10.53;;
7965;SDS011;4028;43.272;26.932;2023-01-04T00:17:59;13.47;;;10.23;;
7965;SDS011;4028;43.272;26.932;2023-01-04T00:20:25;11.40;;;10.20;;
7965;SDS011;4028;43.272;26.932;2023-01-04T00:22:50;14.60;;;10.43;;
7965;SDS011;4028;43.272;26.932;2023-01-04T00:25:15;11.60;;;10.40;;
7965;SDS011;4028;43.272;26.932;2023-01-04T00:27:41;13.23;;;9.60;;
7965;SDS011;4028;43.272;26.932;2023-01-04T00:30:07;11.33;;;10.07;;
7965;SDS011;4028;43.272;26.932;2023-01-04T00:32:33;13.47;;;11.27;;
7965;SDS011;4028;43.272;26.932;2023-01-04T00:34:58;12.63;;;11.30;;
7965;SDS011;4028;43.272;26.932;2023-01-04T00:37:24;12.80;;;10.07;;
7965;SDS011;4028;43.272;26.932;2023-01-04T00:39:49;12.90;;;10.63;;
7965;SDS011;4028;43.272;26.932;2023-01-04T00:42:15;12.27;;;10.97;;
7965;SDS011;4028;43.272;26.932;2023-01-04T00:44:40;13.40;;;10.60;;
7965;SDS011;4028;43.272;26.932;2023-01-04T00:47:06;14.33;;;11.27;;
7965;SDS011;4028;43.272;26.932;2023-01-04T00:49:31;11.93;;;10.50;;
7965;SDS011;4028;43.272;26.932;2023-01-04T00:51:57;13.80;;;10.43;;
7965;SDS011;4028;43.272;26.932;2023-01-04T00:54:22;12.80;;;10.63;;
7965;SDS011;4028;43.272;26.932;2023-01-04T00:56:48;11.33;;;10.13;;
7965;SDS011;4028;43.272;26.932;2023-01-04T00:59:16;13.37;;;11.20;;
7965;SDS011;4028;43.272;26.932;2023-01-04T01:01:44;17.83;;;12.77;;
7965;SDS011;4028;43.272;26.932;2023-01-04T01:04:13;19.17;;;13.13;;
7965;SDS011;4028;43.272;26.932;2023-01-04T01:06:40;18.67;;;12.87;;
7965;SDS011;4028;43.272;26.932;2023-01-04T01:09:06;16.03;;;12.97;;
7965;SDS011;4028;43.272;26.932;2023-01-04T01:11:31;22.63;;;13.70;;
7965;SDS011;4028;43.272;26.932;2023-01-04T01:13:57;18.53;;;13.53;;
7965;SDS011;4028;43.272;26.932;2023-01-04T01:16:23;17.37;;;14.70;;
7965;SDS011;4028;43.272;26.932;2023-01-04T01:18:51;15.93;;;13.53;;
7965;SDS011;4028;43.272;26.932;2023-01-04T01:21:19;17.97;;;13.13;;
7965;SDS011;4028;43.272;26.932;2023-01-04T01:23:47;19.90;;;14.30;;
7965;SDS011;4028;43.272;26.932;2023-01-04T01:26:14;17.63;;;14.40;;
7965;SDS011;4028;43.272;26.932;2023-01-04T01:28:41;16.47;;;13.17;;
7965;SDS011;4028;43.272;26.932;2023-01-04T01:31:14;18.20;;;14.47;;
7965;SDS011;4028;43.272;26.932;2023-01-04T01:33:44;22.93;;;14.20;;
7965;SDS011;4028;43.272;26.932;2023-01-04T01:36:11;17.87;;;13.67;;
7965;SDS011;4028;43.272;26.932;2023-01-04T01:38:38;19.70;;;14.53;;
7965;SDS011;4028;43.272;26.932;2023-01-04T01:41:05;19.07;;;15.03;;
7965;SDS011;4028;43.272;26.932;2023-01-04T01:49:28;18.73;;;14.57;;
7965;SDS011;4028;43.272;26.932;2023-01-04T01:51:58;16.30;;;14.30;;
7965;SDS011;4028;43.272;26.932;2023-01-04T01:54:34;15.87;;;12.83;;
7965;SDS011;4028;43.272;26.932;2023-01-04T01:57:05;17.07;;;14.07;;
7965;SDS011;4028;43.272;26.932;2023-01-04T01:59:34;18.13;;;13.93;;
7965;SDS011;4028;43.272;26.932;2023-01-04T02:02:04;17.73;;;13.80;;
7965;SDS011;4028;43.272;26.932;2023-01-04T02:04:30;15.37;;;12.63;;
7965;SDS011;4028;43.272;26.932;2023-01-04T02:06:56;18.33;;;12.87;;
7965;SDS011;4028;43.272;26.932;2023-01-04T02:09:23;17.17;;;14.37;;
7965;SDS011;4028;43.272;26.932;2023-01-04T02:11:49;17.57;;;14.57;;
7965;SDS011;4028;43.272;26.932;2023-01-04T02:14:15;20.13;;;14.40;;
7965;SDS011;4028;43.272;26.932;2023-01-04T02:19:36;17.60;;;14.10;;
7965;SDS011;4028;43.272;26.932;2023-01-04T02:39:47;18.57;;;12.97;;
7965;SDS011;4028;43.272;26.932;2023-01-04T02:42:24;14.40;;;12.63;;
7965;SDS011;4028;43.272;26.932;2023-01-04T02:45:21;14.80;;;12.83;;
7965;SDS011;4028;43.272;26.932;2023-01-04T02:47:50;20.20;;;12.47;;
7965;SDS011;4028;43.272;26.932;2023-01-04T02:50:57;14.77;;;13.13;;
7965;SDS011;4028;43.272;26.932;2023-01-04T02:53:29;15.90;;;13.00;;
7965;SDS011;4028;43.272;26.932;2023-01-04T03:01:49;16.40;;;13.03;;
7965;SDS011;4028;43.272;26.932;2023-01-04T03:08:12;13.40;;;11.93;;
7965;SDS011;4028;43.272;26.932;2023-01-04T03:10:48;13.07;;;11.50;;
7965;SDS011;4028;43.272;26.932;2023-01-04T03:15:54;15.03;;;11.60;;
7965;SDS011;4028;43.272;26.932;2023-01-04T03:18:28;14.10;;;11.87;;
7965;SDS011;4028;43.272;26.932;2023-01-04T03:20:58;13.20;;;11.23;;
7965;SDS011;4028;43.272;26.932;2023-01-04T03:23:27;15.83;;;12.40;;
7965;SDS011;4028;43.272;26.932;2023-01-04T03:26:17;15.83;;;12.47;;
7965;SDS011;4028;43.272;26.932;2023-01-04T03:29:07;13.93;;;11.77;;
7965;SDS011;4028;43.272;26.932;2023-01-04T03:32:06;14.33;;;12.33;;
7965;SDS011;4028;43.272;26.932;2023-01-04T03:34:54;18.87;;;12.77;;
7965;SDS011;4028;43.272;26.932;2023-01-04T03:37:43;13.57;;;11.93;;
7965;SDS011;4028;43.272;26.932;2023-01-04T03:40:44;14.97;;;12.30;;
7965;SDS011;4028;43.272;26.932;2023-01-04T03:43:36;16.63;;;12.50;;
7965;SDS011;4028;43.272;26.932;2023-01-04T03:46:37;16.07;;;13.23;;
7965;SDS011;4028;43.272;26.932;2023-01-04T03:50:12;14.67;;;12.63;;
7965;SDS011;4028;43.272;26.932;2023-01-04T03:52:26;15.80;;;12.83;;
7965;SDS011;4028;43.272;26.932;2023-01-04T03:54:53;16.40;;;13.47;;
7965;SDS011;4028;43.272;26.932;2023-01-04T03:57:22;19.20;;;14.73;;
7965;SDS011;4028;43.272;26.932;2023-01-04T03:59:51;20.43;;;14.57;;
7965;SDS011;4028;43.272;26.932;2023-01-04T04:02:22;22.27;;;15.93;;
7965;SDS011;4028;43.272;26.932;2023-01-04T04:04:53;19.27;;;14.90;;
7965;SDS011;4028;43.272;26.932;2023-01-04T04:07:37;19.33;;;16.20;;
7965;SDS011;4028;43.272;26.932;2023-01-04T04:10:21;24.03;;;17.43;;
7965;SDS011;4028;43.272;26.932;2023-01-04T04:12:47;18.67;;;16.00;;
7965;SDS011;4028;43.272;26.932;2023-01-04T04:15:13;22.17;;;16.53;;
7965;SDS011;4028;43.272;26.932;2023-01-04T04:17:39;19.73;;;15.00;;
7965;SDS011;4028;43.272;26.932;2023-01-04T04:20:04;18.37;;;14.57;;
7965;SDS011;4028;43.272;26.932;2023-01-04T04:22:30;18.87;;;14.73;;
7965;SDS011;4028;43.272;26.932;2023-01-04T04:24:56;18.33;;;15.27;;
7965;SDS011;4028;43.272;26.932;2023-01-04T04:27:21;17.40;;;15.23;;
7965;SDS011;4028;43.272;26.932;2023-01-04T04:29:46;20.07;;;14.40;;
7965;SDS011;4028;43.272;26.932;2023-01-04T04:32:12;18.07;;;14.37;;
7965;SDS011;4028;43.272;26.932;2023-01-04T04:34:37;17.83;;;14.50;;
7965;SDS011;4028;43.272;26.932;2023-01-04T04:37:04;20.53;;;14.97;;
7965;SDS011;4028;43.272;26.932;2023-01-04T04:39:30;17.73;;;14.40;;
7965;SDS011;4028;43.272;26.932;2023-01-04T04:41:55;16.47;;;14.67;;
7965;SDS011;4028;43.272;26.932;2023-01-04T04:44:20;17.27;;;14.63;;
7965;SDS011;4028;43.272;26.932;2023-01-04T04:46:46;17.27;;;14.73;;
7965;SDS011;4028;43.272;26.932;2023-01-04T04:49:13;17.90;;;14.50;;
7965;SDS011;4028;43.272;26.932;2023-01-04T04:51:39;17.83;;;14.90;;
7965;SDS011;4028;43.272;26.932;2023-01-04T04:54:06;18.30;;;14.80;;
7965;SDS011;4028;43.272;26.932;2023-01-04T04:56:33;21.27;;;15.57;;
7965;SDS011;4028;43.272;26.932;2023-01-04T04:59:00;18.23;;;14.90;;
7965;SDS011;4028;43.272;26.932;2023-01-04T05:01:26;19.80;;;15.53;;
7965;SDS011;4028;43.272;26.932;2023-01-04T05:03:51;17.10;;;14.43;;
7965;SDS011;4028;43.272;26.932;2023-01-04T05:06:17;21.43;;;15.07;;
7965;SDS011;4028;43.272;26.932;2023-01-04T05:08:42;19.47;;;14.73;;
7965;SDS011;4028;43.272;26.932;2023-01-04T05:11:09;18.27;;;14.07;;
7965;SDS011;4028;43.272;26.932;2023-01-04T05:13:36;21.27;;;15.80;;
7965;SDS011;4028;43.272;26.932;2023-01-04T05:16:02;21.73;;;15.50;;
7965;SDS011;4028;43.272;26.932;2023-01-04T05:18:28;20.77;;;16.23;;
7965;SDS011;4028;43.272;26.932;2023-01-04T05:20:54;22.53;;;16.27;;
7965;SDS011;4028;43.272;26.932;2023-01-04T05:23:20;23.30;;;16.33;;
7965;SDS011;4028;43.272;26.932;2023-01-04T05:25:49;22.80;;;15.50;;
7965;SDS011;4028;43.272;26.932;2023-01-04T05:28:17;24.00;;;16.37;;
7965;SDS011;4028;43.272;26.932;2023-01-04T05:30:42;20.50;;;16.23;;
7965;SDS011;4028;43.272;26.932;2023-01-04T05:33:24;22.70;;;18.10;;
7965;SDS011;4028;43.272;26.932;2023-01-04T05:35:55;29.33;;;19.37;;
7965;SDS011;4028;43.272;26.932;2023-01-04T05:38:23;25.03;;;19.27;;
7965;SDS011;4028;43.272;26.932;2023-01-04T05:40:49;25.23;;;19.40;;
7965;SDS011;4028;43.272;26.932;2023-01-04T05:43:15;26.73;;;18.40;;
7965;SDS011;4028;43.272;26.932;2023-01-04T05:45:43;27.90;;;18.30;;
7965;SDS011;4028;43.272;26.932;2023-01-04T05:48:11;24.03;;;18.37;;
7965;SDS011;4028;43.272;26.932;2023-01-04T05:50:36;26.37;;;21.70;;
7965;SDS011;4028;43.272;26.932;2023-01-04T05:53:02;33.43;;;21.43;;
7965;SDS011;4028;43.272;26.932;2023-01-04T05:55:28;28.40;;;22.10;;
7965;SDS011;4028;43.272;26.932;2023-01-04T05:57:53;30.33;;;22.17;;
7965;SDS011;4028;43.272;26.932;2023-01-04T06:00:19;31.93;;;24.33;;
7965;SDS011;4028;43.272;26.932;2023-01-04T06:02:44;31.47;;;24.93;;
7965;SDS011;4028;43.272;26.932;2023-01-04T06:05:10;31.33;;;25.07;;
7965;SDS011;4028;43.272;26.932;2023-01-04T06:07:37;32.93;;;25.23;;
7965;SDS011;4028;43.272;26.932;2023-01-04T06:10:04;32.40;;;25.80;;
7965;SDS011;4028;43.272;26.932;2023-01-04T06:12:34;33.47;;;24.80;;
7965;SDS011;4028;43.272;26.932;2023-01-04T06:14:59;33.67;;;23.87;;
7965;SDS011;4028;43.272;26.932;2023-01-04T06:17:25;30.03;;;24.63;;
7965;SDS011;4028;43.272;26.932;2023-01-04T06:19:50;37.87;;;26.67;;
7965;SDS011;4028;43.272;26.932;2023-01-04T06:22:16;42.43;;;29.97;;
7965;SDS011;4028;43.272;26.932;2023-01-04T06:24:41;40.67;;;31.10;;
7965;SDS011;4028;43.272;26.932;2023-01-04T06:27:07;44.50;;;31.80;;
7965;SDS011;4028;43.272;26.932;2023-01-04T06:29:32;38.57;;;30.67;;
7965;SDS011;4028;43.272;26.932;2023-01-04T06:31:58;39.33;;;31.13;;
7965;SDS011;4028;43.272;26.932;2023-01-04T06:34:23;36.13;;;28.53;;
7965;SDS011;4028;43.272;26.932;2023-01-04T06:36:48;38.93;;;29.43;;
7965;SDS011;4028;43.272;26.932;2023-01-04T06:39:14;34.77;;;27.40;;
7965;SDS011;4028;43.272;26.932;2023-01-04T06:41:39;35.10;;;27.90;;
7965;SDS011;4028;43.272;26.932;2023-01-04T06:44:05;33.37;;;27.80;;
7965;SDS011;4028;43.272;26.932;2023-01-04T06:46:31;33.83;;;27.97;;
7965;SDS011;4028;43.272;26.932;2023-01-04T06:48:56;31.70;;;25.47;;
7965;SDS011;4028;43.272;26.932;2023-01-04T06:51:22;33.03;;;26.50;;
7965;SDS011;4028;43.272;26.932;2023-01-04T06:53:48;36.40;;;27.80;;
7965;SDS011;4028;43.272;26.932;2023-01-04T06:56:14;40.00;;;28.77;;
7965;SDS011;4028;43.272;26.932;2023-01-04T06:58:40;37.43;;;30.00;;
7965;SDS011;4028;43.272;26.932;2023-01-04T07:01:05;39.83;;;30.40;;
7965;SDS011;4028;43.272;26.932;2023-01-04T07:03:31;36.53;;;31.20;;
7965;SDS011;4028;43.272;26.932;2023-01-04T07:05:57;37.07;;;29.50;;
7965;SDS011;4028;43.272;26.932;2023-01-04T07:08:23;39.03;;;30.83;;
7965;SDS011;4028;43.272;26.932;2023-01-04T07:10:48;44.80;;;31.93;;
7965;SDS011;4028;43.272;26.932;2023-01-04T07:13:14;42.07;;;33.73;;
7965;SDS011;4028;43.272;26.932;2023-01-04T07:15:40;41.97;;;33.53;;
7965;SDS011;4028;43.272;26.932;2023-01-04T07:18:06;42.17;;;33.33;;
7965;SDS011;4028;43.272;26.932;2023-01-04T07:20:32;39.43;;;32.77;;
7965;SDS011;4028;43.272;26.932;2023-01-04T07:22:58;41.87;;;34.17;;
7965;SDS011;4028;43.272;26.932;2023-01-04T07:25:23;43.97;;;34.23;;
7965;SDS011;4028;43.272;26.932;2023-01-04T07:27:50;49.07;;;37.83;;
7965;SDS011;4028;43.272;26.932;2023-01-04T07:30:17;43.97;;;35.17;;
7965;SDS011;4028;43.272;26.932;2023-01-04T07:32:42;42.57;;;34.40;;
7965;SDS011;4028;43.272;26.932;2023-01-04T07:35:08;41.20;;;33.80;;
7965;SDS011;4028;43.272;26.932;2023-01-04T07:37:33;37.50;;;32.93;;
7965;SDS011;4028;43.272;26.932;2023-01-04T07:39:59;34.00;;;28.20;;
7965;SDS011;4028;43.272;26.932;2023-01-04T07:42:24;27.27;;;24.27;;
7965;SDS011;4028;43.272;26.932;2023-01-04T07:44:50;28.43;;;24.37;;
7965;SDS011;4028;43.272;26.932;2023-01-04T07:47:16;31.33;;;25.20;;
7965;SDS011;4028;43.272;26.932;2023-01-04T07:49:41;35.83;;;27.83;;
7965;SDS011;4028;43.272;26.932;2023-01-04T07:52:06;32.07;;;26.67;;
7965;SDS011;4028;43.272;26.932;2023-01-04T07:54:32;33.47;;;28.33;;
7965;SDS011;4028;43.272;26.932;2023-01-04T07:56:57;35.00;;;27.17;;
7965;SDS011;4028;43.272;26.932;2023-01-04T07:59:23;28.07;;;25.00;;
7965;SDS011;4028;43.272;26.932;2023-01-04T08:01:49;35.27;;;25.73;;
7965;SDS011;4028;43.272;26.932;2023-01-04T08:04:15;25.93;;;21.33;;
7965;SDS011;4028;43.272;26.932;2023-01-04T08:06:41;20.90;;;18.00;;
7965;SDS011;4028;43.272;26.932;2023-01-04T08:09:09;21.50;;;18.53;;
7965;SDS011;4028;43.272;26.932;2023-01-04T08:11:35;21.00;;;18.33;;
7965;SDS011;4028;43.272;26.932;2023-01-04T08:14:01;22.97;;;19.00;;
7965;SDS011;4028;43.272;26.932;2023-01-04T08:16:28;22.30;;;19.63;;
7965;SDS011;4028;43.272;26.932;2023-01-04T08:18:56;24.80;;;19.40;;
7965;SDS011;4028;43.272;26.932;2023-01-04T08:21:23;23.90;;;20.30;;
7965;SDS011;4028;43.272;26.932;2023-01-04T08:23:50;24.10;;;20.60;;
7965;SDS011;4028;43.272;26.932;2023-01-04T08:26:16;23.47;;;19.60;;
7965;SDS011;4028;43.272;26.932;2023-01-04T08:28:42;26.90;;;21.67;;
7965;SDS011;4028;43.272;26.932;2023-01-04T08:31:09;24.83;;;20.77;;
7965;SDS011;4028;43.272;26.932;2023-01-04T08:33:37;24.03;;;20.13;;
7965;SDS011;4028;43.272;26.932;2023-01-04T08:36:11;26.70;;;20.60;;
7965;SDS011;4028;43.272;26.932;2023-01-04T08:38:43;24.00;;;21.43;;
7965;SDS011;4028;43.272;26.932;2023-01-04T08:41:09;32.10;;;23.60;;
7965;SDS011;4028;43.272;26.932;2023-01-04T08:43:34;28.00;;;23.20;;
7965;SDS011;4028;43.272;26.932;2023-01-04T08:46:01;28.13;;;22.47;;
7965;SDS011;4028;43.272;26.932;2023-01-04T08:48:30;28.90;;;22.33;;
7965;SDS011;4028;43.272;26.932;2023-01-04T08:50:57;30.30;;;23.47;;
7965;SDS011;4028;43.272;26.932;2023-01-04T08:53:27;30.27;;;22.67;;
7965;SDS011;4028;43.272;26.932;2023-01-04T08:55:53;28.33;;;23.60;;
7965;SDS011;4028;43.272;26.932;2023-01-04T08:58:19;27.43;;;22.70;;
7965;SDS011;4028;43.272;26.932;2023-01-04T09:00:45;28.10;;;22.70;;
7965;SDS011;4028;43.272;26.932;2023-01-04T09:03:11;27.30;;;22.57;;
7965;SDS011;4028;43.272;26.932;2023-01-04T09:05:37;29.20;;;22.53;;
7965;SDS011;4028;43.272;26.932;2023-01-04T09:08:02;26.57;;;21.70;;
7965;SDS011;4028;43.272;26.932;2023-01-04T09:10:28;25.03;;;21.50;;
7965;SDS011;4028;43.272;26.932;2023-01-04T09:12:54;26.93;;;20.27;;
7965;SDS011;4028;43.272;26.932;2023-01-04T09:15:19;25.57;;;19.87;;
7965;SDS011;4028;43.272;26.932;2023-01-04T09:17:45;22.30;;;18.23;;
7965;SDS011;4028;43.272;26.932;2023-01-04T09:20:10;23.40;;;18.77;;
7965;SDS011;4028;43.272;26.932;2023-01-04T09:22:36;22.03;;;17.40;;
7965;SDS011;4028;43.272;26.932;2023-01-04T09:25:01;18.97;;;16.23;;
7965;SDS011;4028;43.272;26.932;2023-01-04T09:27:28;23.00;;;15.87;;
7965;SDS011;4028;43.272;26.932;2023-01-04T09:29:55;20.43;;;15.90;;
7965;SDS011;4028;43.272;26.932;2023-01-04T09:32:20;21.47;;;16.70;;
7965;SDS011;4028;43.272;26.932;2023-01-04T09:34:46;18.23;;;15.70;;
7965;SDS011;4028;43.272;26.932;2023-01-04T09:37:11;22.23;;;15.70;;
7965;SDS011;4028;43.272;26.932;2023-01-04T09:39:37;15.67;;;13.63;;
7965;SDS011;4028;43.272;26.932;2023-01-04T09:42:02;18.10;;;14.83;;
7965;SDS011;4028;43.272;26.932;2023-01-04T09:45:11;20.73;;;15.87;;
7965;SDS011;4028;43.272;26.932;2023-01-04T09:47:57;23.17;;;17.53;;
7965;SDS011;4028;43.272;26.932;2023-01-04T09:50:57;24.13;;;18.80;;
7965;SDS011;4028;43.272;26.932;2023-01-04T09:53:30;24.17;;;19.47;;
7965;SDS011;4028;43.272;26.932;2023-01-04T09:56:00;27.27;;;20.17;;
7965;SDS011;4028;43.272;26.932;2023-01-04T09:58:35;19.43;;;17.10;;
7965;SDS011;4028;43.272;26.932;2023-01-04T10:02:08;17.07;;;15.00;;
7965;SDS011;4028;43.272;26.932;2023-01-04T10:04:33;24.20;;;15.63;;
7965;SDS011;4028;43.272;26.932;2023-01-04T10:07:05;18.90;;;16.33;;
7965;SDS011;4028;43.272;26.932;2023-01-04T10:09:38;22.00;;;16.77;;
7965;SDS011;4028;43.272;26.932;2023-01-04T10:14:48;39.37;;;23.83;;
7965;SDS011;4028;43.272;26.932;2023-01-04T10:22:58;17.33;;;14.57;;
7965;SDS011;4028;43.272;26.932;2023-01-04T10:25:42;23.50;;;15.50;;
7965;SDS011;4028;43.272;26.932;2023-01-04T10:31:24;20.90;;;17.57;;
7965;SDS011;4028;43.272;26.932;2023-01-04T10:36:29;25.27;;;20.30;;
7965;SDS011;4028;43.272;26.932;2023-01-04T10:39:10;23.80;;;18.30;;
7965;SDS011;4028;43.272;26.932;2023-01-04T10:41:42;20.33;;;15.97;;
7965;SDS011;4028;43.272;26.932;2023-01-04T10:47:34;18.37;;;15.00;;
7965;SDS011;4028;43.272;26.932;2023-01-04T10:50:21;31.07;;;18.23;;
7965;SDS011;4028;43.272;26.932;2023-01-04T10:55:35;18.33;;;15.70;;
7965;SDS011;4028;43.272;26.932;2023-01-04T10:58:08;20.23;;;15.37;;
7965;SDS011;4028;43.272;26.932;2023-01-04T11:00:43;20.80;;;14.97;;
7965;SDS011;4028;43.272;26.932;2023-01-04T11:06:02;17.40;;;14.03;;
7965;SDS011;4028;43.272;26.932;2023-01-04T11:09:19;19.13;;;15.17;;
7965;SDS011;4028;43.272;26.932;2023-01-04T11:11:50;20.13;;;15.70;;
7965;SDS011;4028;43.272;26.932;2023-01-04T11:14:19;22.37;;;16.73;;
7965;SDS011;4028;43.272;26.932;2023-01-04T11:16:48;21.00;;;16.87;;
7965;SDS011;4028;43.272;26.932;2023-01-04T11:19:15;21.30;;;16.87;;
7965;SDS011;4028;43.272;26.932;2023-01-04T11:21:52;18.70;;;15.57;;
7965;SDS011;4028;43.272;26.932;2023-01-04T11:24:25;20.03;;;15.67;;
7965;SDS011;4028;43.272;26.932;2023-01-04T11:26:55;20.27;;;17.67;;
7965;SDS011;4028;43.272;26.932;2023-01-04T11:32:10;26.90;;;18.60;;
7965;SDS011;4028;43.272;26.932;2023-01-04T11:34:54;24.60;;;16.43;;
7965;SDS011;4028;43.272;26.932;2023-01-04T11:37:31;24.50;;;16.40;;
7965;SDS011;4028;43.272;26.932;2023-01-04T11:42:45;19.77;;;15.33;;
7965;SDS011;4028;43.272;26.932;2023-01-04T11:45:16;17.33;;;14.47;;
7965;SDS011;4028;43.272;26.932;2023-01-04T11:47:53;20.97;;;15.67;;
7965;SDS011;4028;43.272;26.932;2023-01-04T11:50:40;20.03;;;16.17;;
7965;SDS011;4028;43.272;26.932;2023-01-04T11:53:26;23.90;;;16.23;;
7965;SDS011;4028;43.272;26.932;2023-01-04T11:56:09;23.90;;;17.67;;
7965;SDS011;4028;43.272;26.932;2023-01-04T11:58:35;26.07;;;17.60;;
7965;SDS011;4028;43.272;26.932;2023-01-04T12:01:01;24.53;;;17.60;;
7965;SDS011;4028;43.272;26.932;2023-01-04T12:03:28;21.73;;;17.03;;
7965;SDS011;4028;43.272;26.932;2023-01-04T12:05:56;22.83;;;15.93;;
7965;SDS011;4028;43.272;26.932;2023-01-04T12:08:32;15.47;;;13.43;;
7965;SDS011;4028;43.272;26.932;2023-01-04T12:11:01;18.57;;;14.50;;
7965;SDS011;4028;43.272;26.932;2023-01-04T12:13:28;17.33;;;13.93;;
7965;SDS011;4028;43.272;26.932;2023-01-04T12:18:58;17.73;;;14.13;;
7965;SDS011;4028;43.272;26.932;2023-01-04T12:21:25;19.70;;;14.60;;
7965;SDS011;4028;43.272;26.932;2023-01-04T12:23:51;20.83;;;14.93;;
7965;SDS011;4028;43.272;26.932;2023-01-04T12:26:18;16.77;;;14.03;;
7965;SDS011;4028;43.272;26.932;2023-01-04T12:33:53;19.47;;;14.10;;
7965;SDS011;4028;43.272;26.932;2023-01-04T12:47:01;15.40;;;13.17;;
7965;SDS011;4028;43.272;26.932;2023-01-04T12:52:41;17.83;;;14.00;;
7965;SDS011;4028;43.272;26.932;2023-01-04T12:57:55;20.17;;;15.30;;
7965;SDS011;4028;43.272;26.932;2023-01-04T13:00:22;17.37;;;13.07;;
7965;SDS011;4028;43.272;26.932;2023-01-04T13:05:52;17.50;;;13.43;;
7965;SDS011;4028;43.272;26.932;2023-01-04T13:08:22;19.63;;;13.90;;
7965;SDS011;4028;43.272;26.932;2023-01-04T13:10:49;17.03;;;14.43;;
7965;SDS011;4028;43.272;26.932;2023-01-04T13:23:41;21.30;;;15.70;;
7965;SDS011;4028;43.272;26.932;2023-01-04T13:29:29;20.93;;;16.77;;
7965;SDS011;4028;43.272;26.932;2023-01-04T13:31:56;23.97;;;18.93;;
7965;SDS011;4028;43.272;26.932;2023-01-04T13:34:25;28.47;;;21.07;;
7965;SDS011;4028;43.272;26.932;2023-01-04T13:37:06;22.17;;;18.80;;
7965;SDS011;4028;43.272;26.932;2023-01-04T13:39:45;17.67;;;14.43;;
7965;SDS011;4028;43.272;26.932;2023-01-04T13:42:15;18.50;;;15.13;;
7965;SDS011;4028;43.272;26.932;2023-01-04T13:45:03;22.30;;;16.50;;
7965;SDS011;4028;43.272;26.932;2023-01-04T13:47:41;20.33;;;16.60;;
7965;SDS011;4028;43.272;26.932;2023-01-04T13:52:53;18.37;;;15.27;;
7965;SDS011;4028;43.272;26.932;2023-01-04T13:55:20;18.80;;;14.87;;
7965;SDS011;4028;43.272;26.932;2023-01-04T14:00:31;23.63;;;14.90;;
7965;SDS011;4028;43.272;26.932;2023-01-04T14:05:42;20.63;;;15.43;;
7965;SDS011;4028;43.272;26.932;2023-01-04T14:08:10;19.67;;;16.40;;
7965;SDS011;4028;43.272;26.932;2023-01-04T14:10:41;22.47;;;17.30;;
7965;SDS011;4028;43.272;26.932;2023-01-04T14:13:12;17.50;;;14.97;;
7965;SDS011;4028;43.272;26.932;2023-01-04T14:15:40;19.37;;;15.13;;
7965;SDS011;4028;43.272;26.932;2023-01-04T14:18:20;19.73;;;14.73;;
7965;SDS011;4028;43.272;26.932;2023-01-04T14:20:52;21.80;;;16.80;;
7965;SDS011;4028;43.272;26.932;2023-01-04T14:23:28;20.30;;;15.10;;
7965;SDS011;4028;43.272;26.932;2023-01-04T14:25:58;20.80;;;16.67;;
7965;SDS011;4028;43.272;26.932;2023-01-04T14:28:25;22.67;;;16.60;;
7965;SDS011;4028;43.272;26.932;2023-01-04T14:33:26;21.40;;;16.77;;
7965;SDS011;4028;43.272;26.932;2023-01-04T14:38:44;19.30;;;15.93;;
7965;SDS011;4028;43.272;26.932;2023-01-04T14:41:25;23.77;;;15.70;;
7965;SDS011;4028;43.272;26.932;2023-01-04T14:44:02;20.63;;;15.77;;
7965;SDS011;4028;43.272;26.932;2023-01-04T14:46:29;17.83;;;15.00;;
7965;SDS011;4028;43.272;26.932;2023-01-04T14:48:56;21.33;;;14.70;;
7965;SDS011;4028;43.272;26.932;2023-01-04T14:51:31;21.77;;;16.87;;
7965;SDS011;4028;43.272;26.932;2023-01-04T14:54:02;24.80;;;15.30;;
7965;SDS011;4028;43.272;26.932;2023-01-04T14:56:31;21.80;;;15.60;;
7965;SDS011;4028;43.272;26.932;2023-01-04T14:58:57;21.43;;;17.13;;
7965;SDS011;4028;43.272;26.932;2023-01-04T15:01:22;23.83;;;17.07;;
7965;SDS011;4028;43.272;26.932;2023-01-04T15:03:48;19.13;;;15.87;;
7965;SDS011;4028;43.272;26.932;2023-01-04T15:06:13;19.90;;;14.77;;
7965;SDS011;4028;43.272;26.932;2023-01-04T15:08:39;21.30;;;14.60;;
7965;SDS011;4028;43.272;26.932;2023-01-04T15:11:04;20.63;;;14.93;;
7965;SDS011;4028;43.272;26.932;2023-01-04T15:13:30;19.20;;;15.10;;
7965;SDS011;4028;43.272;26.932;2023-01-04T15:15:56;17.77;;;14.00;;
7965;SDS011;4028;43.272;26.932;2023-01-04T15:18:22;16.47;;;13.80;;
7965;SDS011;4028;43.272;26.932;2023-01-04T15:20:47;22.33;;;15.97;;
7965;SDS011;4028;43.272;26.932;2023-01-04T15:23:13;16.27;;;14.07;;
7965;SDS011;4028;43.272;26.932;2023-01-04T15:25:39;21.90;;;14.73;;
7965;SDS011;4028;43.272;26.932;2023-01-04T15:28:05;22.53;;;16.00;;
7965;SDS011;4028;43.272;26.932;2023-01-04T15:30:31;19.57;;;15.80;;
7965;SDS011;4028;43.272;26.932;2023-01-04T15:32:57;25.27;;;16.53;;
7965;SDS011;4028;43.272;26.932;2023-01-04T15:35:22;26.70;;;19.77;;
7965;SDS011;4028;43.272;26.932;2023-01-04T15:37:48;25.23;;;19.00;;
7965;SDS011;4028;43.272;26.932;2023-01-04T15:40:14;26.47;;;20.67;;
7965;SDS011;4028;43.272;26.932;2023-01-04T15:42:40;23.30;;;17.03;;
7965;SDS011;4028;43.272;26.932;2023-01-04T15:45:28;21.00;;;16.67;;
7965;SDS011;4028;43.272;26.932;2023-01-04T15:48:05;23.83;;;19.10;;
7965;SDS011;4028;43.272;26.932;2023-01-04T15:50:32;22.73;;;18.03;;
7965;SDS011;4028;43.272;26.932;2023-01-04T15:53:00;27.53;;;19.77;;
7965;SDS011;4028;43.272;26.932;2023-01-04T15:55:30;30.00;;;19.93;;
7965;SDS011;4028;43.272;26.932;2023-01-04T15:57:57;23.57;;;19.23;;
7965;SDS011;4028;43.272;26.932;2023-01-04T16:00:23;36.50;;;23.90;;
7965;SDS011;4028;43.272;26.932;2023-01-04T16:02:48;31.17;;;20.90;;
7965;SDS011;4028;43.272;26.932;2023-01-04T16:05:14;39.43;;;22.57;;
7965;SDS011;4028;43.272;26.932;2023-01-04T16:07:44;38.50;;;24.87;;
7965;SDS011;4028;43.272;26.932;2023-01-04T16:10:10;26.97;;;21.23;;
7965;SDS011;4028;43.272;26.932;2023-01-04T16:12:36;26.57;;;19.57;;
7965;SDS011;4028;43.272;26.932;2023-01-04T16:15:09;26.67;;;21.37;;
7965;SDS011;4028;43.272;26.932;2023-01-04T16:17:37;30.67;;;20.90;;
7965;SDS011;4028;43.272;26.932;2023-01-04T16:20:03;26.53;;;19.97;;
7965;SDS011;4028;43.272;26.932;2023-01-04T16:22:30;25.00;;;19.83;;
7965;SDS011;4028;43.272;26.932;2023-01-04T16:24:56;27.57;;;20.47;;
7965;SDS011;4028;43.272;26.932;2023-01-04T16:27:21;30.53;;;21.03;;
7965;SDS011;4028;43.272;26.932;2023-01-04T16:29:47;30.47;;;22.73;;
7965;SDS011;4028;43.272;26.932;2023-01-04T16:32:14;35.23;;;25.60;;
7965;SDS011;4028;43.272;26.932;2023-01-04T16:34:40;38.33;;;24.03;;
7965;SDS011;4028;43.272;26.932;2023-01-04T16:37:05;31.83;;;27.37;;
7965;SDS011;4028;43.272;26.932;2023-01-04T16:39:31;30.70;;;21.43;;
7965;SDS011;4028;43.272;26.932;2023-01-04T16:41:56;30.23;;;22.13;;
7965;SDS011;4028;43.272;26.932;2023-01-04T16:44:22;27.00;;;20.97;;
7965;SDS011;4028;43.272;26.932;2023-01-04T16:46:47;24.60;;;19.40;;
7965;SDS011;4028;43.272;26.932;2023-01-04T16:49:13;26.20;;;19.40;;
7965;SDS011;4028;43.272;26.932;2023-01-04T16:51:41;22.47;;;19.60;;